sensor_id;sensor_type;location;lat;lon;timestamp;P1;durP1;ratioP1;P2;durP2;ratioP2
16099;SDS011;8154;50.830;12.082;2023-03-20T00:01:44;1.08;;;1.08;;
16099;SDS011;8154;50.830;12.082;2023-03-20T00:04:12;1.27;;;1.20;;
16099;SDS011;8154;50.830;12.082;2023-03-20T00:06:38;1.30;;;1.20;;
16099;SDS011;8154;50.830;12.082;2023-03-20T00:09:04;1.30;;;1.20;;
16099;SDS011;8154;50.830;12.082;2023-03-20T00:11:49;1.20;;;1.20;;
16099;SDS011;8154;50.830;12.082;2023-03-20T00:14:18;1.25;;;1.20;;
16099;SDS011;8154;50.830;12.082;2023-03-20T00:16:47;1.10;;;1.10;;
16099;SDS011;8154;50.830;12.082;2023-03-20T01:20:32;1.17;;;1.10;;
16099;SDS011;8154;50.830;12.082;2023-03-20T01:22:58;1.20;;;1.10;;
16099;SDS011;8154;50.830;12.082;2023-03-20T01:25:24;1.30;;;1.20;;
16099;SDS011;8154;50.830;12.082;2023-03-20T01:27:51;1.10;;;1.10;;
16099;SDS011;8154;50.830;12.082;2023-03-20T01:32:50;1.10;;;1.10;;
16099;SDS011;8154;50.830;12.082;2023-03-20T01:35:20;1.13;;;1.13;;
16099;SDS011;8154;50.830;12.082;2023-03-20T01:37:48;1.10;;;1.10;;
16099;SDS011;8154;50.830;12.082;2023-03-20T01:40:25;1.00;;;1.00;;
16099;SDS011;8154;50.830;12.082;2023-03-20T01:43:15;1.00;;;1.00;;
16099;SDS011;8154;50.830;12.082;2023-03-20T01:53:51;1.10;;;1.10;;
16099;SDS011;8154;50.830;12.082;2023-03-20T01:56:34;1.00;;;1.00;;
16099;SDS011;8154;50.830;12.082;2023-03-20T01:59:11;1.10;;;1.10;;
16099;SDS011;8154;50.830;12.082;2023-03-20T02:01:43;1.20;;;1.10;;
16099;SDS011;8154;50.830;12.082;2023-03-20T02:04:10;1.00;;;1.00;;
16099;SDS011;8154;50.830;12.082;2023-03-20T02:06:38;1.10;;;1.10;;
16099;SDS011;8154;50.830;12.082;2023-03-20T02:09:06;1.10;;;1.10;;
16099;SDS011;8154;50.830;12.082;2023-03-20T02:11:33;1.00;;;1.00;;
16099;SDS011;8154;50.830;12.082;2023-03-20T02:14:01;1.10;;;1.10;;
16099;SDS011;8154;50.830;12.082;2023-03-20T02:16:27;1.10;;;1.10;;
16099;SDS011;8154;50.830;12.082;2023-03-20T02:18:53;1.00;;;1.00;;
16099;SDS011;8154;50.830;12.082;2023-03-20T02:24:44;1.05;;;1.05;;
16099;SDS011;8154;50.830;12.082;2023-03-20T02:30:38;1.10;;;1.10;;
16099;SDS011;8154;50.830;12.082;2023-03-20T02:41:11;1.10;;;1.10;;
16099;SDS011;8154;50.830;12.082;2023-03-20T02:43:47;1.00;;;1.00;;
16099;SDS011;8154;50.830;12.082;2023-03-20T02:51:52;1.00;;;1.00;;
16099;SDS011;8154;50.830;12.082;2023-03-20T02:57:08;1.00;;;1.00;;
16099;SDS011;8154;50.830;12.082;2023-03-20T03:02:12;1.10;;;1.10;;
16099;SDS011;8154;50.830;12.082;2023-03-20T03:04:50;1.00;;;1.00;;
16099;SDS011;8154;50.830;12.082;2023-03-20T03:07:21;1.00;;;1.00;;
16099;SDS011;8154;50.830;12.082;2023-03-20T03:09:52;0.90;;;0.90;;
16099;SDS011;8154;50.830;12.082;2023-03-20T03:12:26;0.90;;;0.90;;
16099;SDS011;8154;50.830;12.082;2023-03-20T03:14:59;1.10;;;1.10;;
16099;SDS011;8154;50.830;12.082;2023-03-20T03:17:29;1.20;;;1.10;;
16099;SDS011;8154;50.830;12.082;2023-03-20T03:20:01;1.00;;;1.00;;
16099;SDS011;8154;50.830;12.082;2023-03-20T03:22:32;1.08;;;1.08;;
16099;SDS011;8154;50.830;12.082;2023-03-20T03:25:00;1.00;;;1.00;;
16099;SDS011;8154;50.830;12.082;2023-03-20T03:30:02;1.02;;;1.02;;
16099;SDS011;8154;50.830;12.082;2023-03-20T03:32:33;1.10;;;1.10;;
16099;SDS011;8154;50.830;12.082;2023-03-20T03:35:01;0.95;;;0.95;;
16099;SDS011;8154;50.830;12.082;2023-03-20T03:42:56;1.05;;;1.05;;
16099;SDS011;8154;50.830;12.082;2023-03-20T03:45:45;1.00;;;1.00;;
16099;SDS011;8154;50.830;12.082;2023-03-20T03:48:17;1.08;;;1.08;;
16099;SDS011;8154;50.830;12.082;2023-03-20T03:50:50;1.00;;;1.00;;
16099;SDS011;8154;50.830;12.082;2023-03-20T03:53:21;0.90;;;0.90;;
16099;SDS011;8154;50.830;12.082;2023-03-20T03:55:56;0.90;;;0.90;;
16099;SDS011;8154;50.830;12.082;2023-03-20T03:58:27;1.13;;;1.10;;
16099;SDS011;8154;50.830;12.082;2023-03-20T04:00:58;1.00;;;1.00;;
16099;SDS011;8154;50.830;12.082;2023-03-20T04:03:28;0.93;;;0.93;;
16099;SDS011;8154;50.830;12.082;2023-03-20T04:05:58;1.00;;;1.00;;
16099;SDS011;8154;50.830;12.082;2023-03-20T04:08:26;0.90;;;0.90;;
16099;SDS011;8154;50.830;12.082;2023-03-20T04:10:52;1.00;;;1.00;;
16099;SDS011;8154;50.830;12.082;2023-03-20T04:13:18;0.93;;;0.93;;
16099;SDS011;8154;50.830;12.082;2023-03-20T04:15:44;1.00;;;1.00;;
16099;SDS011;8154;50.830;12.082;2023-03-20T04:18:15;1.00;;;1.00;;
16099;SDS011;8154;50.830;12.082;2023-03-20T04:26:51;1.00;;;1.00;;
16099;SDS011;8154;50.830;12.082;2023-03-20T04:29:17;1.00;;;1.00;;
16099;SDS011;8154;50.830;12.082;2023-03-20T04:31:43;0.90;;;0.90;;
16099;SDS011;8154;50.830;12.082;2023-03-20T04:34:08;1.05;;;1.05;;
16099;SDS011;8154;50.830;12.082;2023-03-20T04:36:35;1.00;;;1.00;;
16099;SDS011;8154;50.830;12.082;2023-03-20T04:39:01;1.10;;;1.10;;
16099;SDS011;8154;50.830;12.082;2023-03-20T04:41:27;0.90;;;0.90;;
16099;SDS011;8154;50.830;12.082;2023-03-20T04:43:54;1.00;;;1.00;;
16099;SDS011;8154;50.830;12.082;2023-03-20T04:46:20;0.90;;;0.90;;
16099;SDS011;8154;50.830;12.082;2023-03-20T04:48:46;1.00;;;1.00;;
16099;SDS011;8154;50.830;12.082;2023-03-20T04:51:12;0.93;;;0.93;;
16099;SDS011;8154;50.830;12.082;2023-03-20T04:53:38;0.98;;;0.98;;
16099;SDS011;8154;50.830;12.082;2023-03-20T04:56:04;0.90;;;0.90;;
16099;SDS011;8154;50.830;12.082;2023-03-20T04:58:31;0.85;;;0.85;;
16099;SDS011;8154;50.830;12.082;2023-03-20T05:00:57;0.90;;;0.90;;
16099;SDS011;8154;50.830;12.082;2023-03-20T05:03:24;1.00;;;1.00;;
16099;SDS011;8154;50.830;12.082;2023-03-20T05:05:50;0.90;;;0.90;;
16099;SDS011;8154;50.830;12.082;2023-03-20T05:08:16;1.00;;;1.00;;
16099;SDS011;8154;50.830;12.082;2023-03-20T05:10:42;0.90;;;0.90;;
16099;SDS011;8154;50.830;12.082;2023-03-20T05:13:08;0.90;;;0.90;;
16099;SDS011;8154;50.830;12.082;2023-03-20T05:15:34;0.90;;;0.90;;
16099;SDS011;8154;50.830;12.082;2023-03-20T05:17:59;0.88;;;0.88;;
16099;SDS011;8154;50.830;12.082;2023-03-20T10:23:32;1.00;;;1.00;;
16099;SDS011;8154;50.830;12.082;2023-03-20T10:26:09;1.00;;;1.00;;
16099;SDS011;8154;50.830;12.082;2023-03-20T10:28:56;1.10;;;1.10;;
16099;SDS011;8154;50.830;12.082;2023-03-20T10:31:43;1.10;;;1.10;;
16099;SDS011;8154;50.830;12.082;2023-03-20T10:36:54;1.08;;;1.08;;
16099;SDS011;8154;50.830;12.082;2023-03-20T10:42:20;1.02;;;1.02;;
16099;SDS011;8154;50.830;12.082;2023-03-20T10:44:56;1.00;;;1.00;;
16099;SDS011;8154;50.830;12.082;2023-03-20T10:47:29;1.10;;;1.10;;
16099;SDS011;8154;50.830;12.082;2023-03-20T10:50:02;1.10;;;1.10;;
16099;SDS011;8154;50.830;12.082;2023-03-20T10:52:36;1.05;;;1.05;;
16099;SDS011;8154;50.830;12.082;2023-03-20T10:55:06;1.00;;;1.00;;
16099;SDS011;8154;50.830;12.082;2023-03-20T10:57:37;1.00;;;1.00;;
16099;SDS011;8154;50.830;12.082;2023-03-20T11:00:12;1.00;;;1.00;;
16099;SDS011;8154;50.830;12.082;2023-03-20T11:02:45;1.10;;;1.10;;
16099;SDS011;8154;50.830;12.082;2023-03-20T11:05:20;1.00;;;1.00;;
16099;SDS011;8154;50.830;12.082;2023-03-20T11:08:08;0.90;;;0.90;;
16099;SDS011;8154;50.830;12.082;2023-03-20T11:10:38;1.10;;;1.10;;
16099;SDS011;8154;50.830;12.082;2023-03-20T11:15:47;1.05;;;1.05;;
16099;SDS011;8154;50.830;12.082;2023-03-20T11:18:13;1.20;;;1.10;;
16099;SDS011;8154;50.830;12.082;2023-03-20T11:20:51;1.10;;;1.00;;
16099;SDS011;8154;50.830;12.082;2023-03-20T13:31:02;1.00;;;1.00;;
16099;SDS011;8154;50.830;12.082;2023-03-20T13:36:37;1.00;;;1.00;;
16099;SDS011;8154;50.830;12.082;2023-03-20T13:39:11;1.25;;;1.15;;
16099;SDS011;8154;50.830;12.082;2023-03-20T13:41:49;1.10;;;1.10;;
16099;SDS011;8154;50.830;12.082;2023-03-20T13:44:17;1.42;;;1.30;;
16099;SDS011;8154;50.830;12.082;2023-03-20T13:52:29;1.15;;;1.15;;
16099;SDS011;8154;50.830;12.082;2023-03-20T14:03:05;1.13;;;1.13;;
16099;SDS011;8154;50.830;12.082;2023-03-20T14:05:49;1.40;;;1.30;;
16099;SDS011;8154;50.830;12.082;2023-03-20T14:08:23;1.10;;;1.10;;
16099;SDS011;8154;50.830;12.082;2023-03-20T14:11:12;1.20;;;1.20;;
16099;SDS011;8154;50.830;12.082;2023-03-20T14:13:41;1.10;;;1.10;;
16099;SDS011;8154;50.830;12.082;2023-03-20T14:16:12;1.23;;;1.13;;
16099;SDS011;8154;50.830;12.082;2023-03-20T14:19:05;1.40;;;1.30;;
16099;SDS011;8154;50.830;12.082;2023-03-20T14:21:52;1.20;;;1.20;;
16099;SDS011;8154;50.830;12.082;2023-03-20T14:24:21;1.10;;;1.10;;
16099;SDS011;8154;50.830;12.082;2023-03-20T14:26:51;0.90;;;0.90;;
16099;SDS011;8154;50.830;12.082;2023-03-20T14:29:30;1.30;;;1.20;;
16099;SDS011;8154;50.830;12.082;2023-03-20T14:32:20;1.10;;;1.10;;
16099;SDS011;8154;50.830;12.082;2023-03-20T14:34:49;1.10;;;1.10;;
16099;SDS011;8154;50.830;12.082;2023-03-20T14:40:39;1.17;;;1.17;;
16099;SDS011;8154;50.830;12.082;2023-03-20T14:46:17;1.10;;;1.10;;
16099;SDS011;8154;50.830;12.082;2023-03-20T14:48:52;1.08;;;1.08;;
16099;SDS011;8154;50.830;12.082;2023-03-20T14:56:52;1.13;;;1.13;;
16099;SDS011;8154;50.830;12.082;2023-03-20T14:59:19;1.10;;;1.10;;
16099;SDS011;8154;50.830;12.082;2023-03-20T15:02:00;1.00;;;1.00;;
16099;SDS011;8154;50.830;12.082;2023-03-20T15:04:38;1.30;;;1.20;;
16099;SDS011;8154;50.830;12.082;2023-03-20T15:07:13;1.17;;;1.17;;
16099;SDS011;8154;50.830;12.082;2023-03-20T15:09:45;1.25;;;1.15;;
16099;SDS011;8154;50.830;12.082;2023-03-20T15:12:16;1.00;;;1.00;;
16099;SDS011;8154;50.830;12.082;2023-03-20T15:14:55;0.90;;;0.90;;
16099;SDS011;8154;50.830;12.082;2023-03-20T15:17:24;1.20;;;1.20;;
16099;SDS011;8154;50.830;12.082;2023-03-20T16:24:09;1.25;;;1.20;;
16099;SDS011;8154;50.830;12.082;2023-03-20T16:26:43;1.35;;;1.27;;
16099;SDS011;8154;50.830;12.082;2023-03-20T16:29:13;1.13;;;1.13;;
16099;SDS011;8154;50.830;12.082;2023-03-20T16:31:42;1.10;;;1.10;;
16099;SDS011;8154;50.830;12.082;2023-03-20T16:34:33;1.23;;;1.20;;
16099;SDS011;8154;50.830;12.082;2023-03-20T16:37:05;1.40;;;1.30;;
16099;SDS011;8154;50.830;12.082;2023-03-20T16:39:32;1.20;;;1.20;;
16099;SDS011;8154;50.830;12.082;2023-03-20T16:44:34;1.35;;;1.25;;
16099;SDS011;8154;50.830;12.082;2023-03-20T16:47:13;1.00;;;1.00;;
16099;SDS011;8154;50.830;12.082;2023-03-20T16:49:49;1.10;;;1.10;;
16099;SDS011;8154;50.830;12.082;2023-03-20T16:52:38;1.23;;;1.20;;
16099;SDS011;8154;50.830;12.082;2023-03-20T16:55:11;1.23;;;1.13;;
16099;SDS011;8154;50.830;12.082;2023-03-20T16:57:41;1.17;;;1.17;;
16099;SDS011;8154;50.830;12.082;2023-03-20T17:00:25;1.30;;;1.20;;
16099;SDS011;8154;50.830;12.082;2023-03-20T17:02:59;1.20;;;1.20;;
16099;SDS011;8154;50.830;12.082;2023-03-20T17:05:54;1.20;;;1.20;;
16099;SDS011;8154;50.830;12.082;2023-03-20T17:08:50;1.33;;;1.23;;
16099;SDS011;8154;50.830;12.082;2023-03-20T17:11:25;1.20;;;1.20;;
16099;SDS011;8154;50.830;12.082;2023-03-20T17:13:55;1.25;;;1.25;;
16099;SDS011;8154;50.830;12.082;2023-03-20T17:16:21;1.30;;;1.20;;
16099;SDS011;8154;50.830;12.082;2023-03-20T17:18:59;1.20;;;1.10;;
16099;SDS011;8154;50.830;12.082;2023-03-20T17:21:26;1.15;;;1.13;;
16099;SDS011;8154;50.830;12.082;2023-03-20T17:23:53;1.20;;;1.20;;
16099;SDS011;8154;50.830;12.082;2023-03-20T17:26:20;1.40;;;1.30;;
16099;SDS011;8154;50.830;12.082;2023-03-20T17:28:46;1.30;;;1.20;;
16099;SDS011;8154;50.830;12.082;2023-03-20T17:31:13;1.13;;;1.10;;
16099;SDS011;8154;50.830;12.082;2023-03-20T17:33:40;1.20;;;1.20;;
16099;SDS011;8154;50.830;12.082;2023-03-20T17:38:53;1.30;;;1.30;;
16099;SDS011;8154;50.830;12.082;2023-03-20T17:41:20;1.30;;;1.30;;
16099;SDS011;8154;50.830;12.082;2023-03-20T17:43:52;1.30;;;1.20;;
16099;SDS011;8154;50.830;12.082;2023-03-20T17:46:25;1.20;;;1.20;;
16099;SDS011;8154;50.830;12.082;2023-03-20T17:49:03;1.10;;;1.10;;
16099;SDS011;8154;50.830;12.082;2023-03-20T17:51:32;1.50;;;1.40;;
16099;SDS011;8154;50.830;12.082;2023-03-20T17:53:59;1.20;;;1.20;;
16099;SDS011;8154;50.830;12.082;2023-03-20T17:56:25;1.10;;;1.10;;
16099;SDS011;8154;50.830;12.082;2023-03-20T17:58:56;1.20;;;1.20;;
16099;SDS011;8154;50.830;12.082;2023-03-20T18:01:22;1.40;;;1.30;;
16099;SDS011;8154;50.830;12.082;2023-03-20T18:03:48;1.10;;;1.10;;
16099;SDS011;8154;50.830;12.082;2023-03-20T18:06:23;1.27;;;1.25;;
16099;SDS011;8154;50.830;12.082;2023-03-20T18:08:52;1.20;;;1.20;;
16099;SDS011;8154;50.830;12.082;2023-03-20T18:11:19;1.45;;;1.35;;
16099;SDS011;8154;50.830;12.082;2023-03-20T18:13:45;1.35;;;1.25;;
16099;SDS011;8154;50.830;12.082;2023-03-20T18:16:24;1.20;;;1.20;;
16099;SDS011;8154;50.830;12.082;2023-03-20T18:18:52;1.30;;;1.20;;
16099;SDS011;8154;50.830;12.082;2023-03-20T18:21:20;1.50;;;1.40;;
16099;SDS011;8154;50.830;12.082;2023-03-20T18:23:46;1.60;;;1.50;;
16099;SDS011;8154;50.830;12.082;2023-03-20T18:28:52;1.50;;;1.40;;
16099;SDS011;8154;50.830;12.082;2023-03-20T18:31:20;1.23;;;1.23;;
16099;SDS011;8154;50.830;12.082;2023-03-20T18:33:47;1.20;;;1.20;;
16099;SDS011;8154;50.830;12.082;2023-03-20T18:36:15;1.35;;;1.25;;
16099;SDS011;8154;50.830;12.082;2023-03-20T18:38:43;1.30;;;1.25;;
16099;SDS011;8154;50.830;12.082;2023-03-20T18:41:09;1.40;;;1.30;;
16099;SDS011;8154;50.830;12.082;2023-03-20T18:43:37;1.02;;;1.02;;
16099;SDS011;8154;50.830;12.082;2023-03-20T18:46:03;1.30;;;1.20;;
16099;SDS011;8154;50.830;12.082;2023-03-20T18:48:31;1.40;;;1.30;;
16099;SDS011;8154;50.830;12.082;2023-03-20T18:50:58;1.48;;;1.38;;
16099;SDS011;8154;50.830;12.082;2023-03-20T18:53:29;1.27;;;1.27;;
16099;SDS011;8154;50.830;12.082;2023-03-20T18:55:56;1.38;;;1.27;;
16099;SDS011;8154;50.830;12.082;2023-03-20T18:58:23;1.50;;;1.40;;
16099;SDS011;8154;50.830;12.082;2023-03-20T19:00:51;1.50;;;1.40;;
16099;SDS011;8154;50.830;12.082;2023-03-20T19:03:19;1.30;;;1.30;;
16099;SDS011;8154;50.830;12.082;2023-03-20T19:05:51;1.38;;;1.30;;
16099;SDS011;8154;50.830;12.082;2023-03-20T19:08:19;1.40;;;1.30;;
16099;SDS011;8154;50.830;12.082;2023-03-20T19:10:45;1.42;;;1.33;;
16099;SDS011;8154;50.830;12.082;2023-03-20T19:13:13;1.40;;;1.30;;
16099;SDS011;8154;50.830;12.082;2023-03-20T19:15:41;1.40;;;1.30;;
16099;SDS011;8154;50.830;12.082;2023-03-20T19:18:15;1.40;;;1.30;;
16099;SDS011;8154;50.830;12.082;2023-03-20T19:20:51;1.40;;;1.30;;
16099;SDS011;8154;50.830;12.082;2023-03-20T19:23:22;1.40;;;1.30;;
16099;SDS011;8154;50.830;12.082;2023-03-20T19:25:52;1.40;;;1.30;;
16099;SDS011;8154;50.830;12.082;2023-03-20T19:28:27;1.40;;;1.30;;
16099;SDS011;8154;50.830;12.082;2023-03-20T19:30:59;1.42;;;1.33;;
16099;SDS011;8154;50.830;12.082;2023-03-20T19:33:26;1.25;;;1.25;;
16099;SDS011;8154;50.830;12.082;2023-03-20T19:35:53;1.38;;;1.30;;
16099;SDS011;8154;50.830;12.082;2023-03-20T19:38:20;1.30;;;1.30;;
16099;SDS011;8154;50.830;12.082;2023-03-20T19:40:48;1.35;;;1.25;;
16099;SDS011;8154;50.830;12.082;2023-03-20T19:43:19;1.38;;;1.27;;
16099;SDS011;8154;50.830;12.082;2023-03-20T19:45:51;1.45;;;1.35;;
16099;SDS011;8154;50.830;12.082;2023-03-20T19:48:23;1.40;;;1.30;;
16099;SDS011;8154;50.830;12.082;2023-03-20T19:50:56;1.30;;;1.20;;
16099;SDS011;8154;50.830;12.082;2023-03-20T19:53:24;1.55;;;1.45;;
16099;SDS011;8154;50.830;12.082;2023-03-20T19:55:55;1.38;;;1.27;;
16099;SDS011;8154;50.830;12.082;2023-03-20T19:58:22;1.30;;;1.20;;
16099;SDS011;8154;50.830;12.082;2023-03-20T20:00:49;1.20;;;1.20;;
16099;SDS011;8154;50.830;12.082;2023-03-20T20:03:18;1.50;;;1.40;;
16099;SDS011;8154;50.830;12.082;2023-03-20T20:05:49;1.40;;;1.30;;
16099;SDS011;8154;50.830;12.082;2023-03-20T20:08:35;1.50;;;1.40;;
16099;SDS011;8154;50.830;12.082;2023-03-20T20:11:03;1.40;;;1.30;;
16099;SDS011;8154;50.830;12.082;2023-03-20T20:13:31;1.50;;;1.40;;
16099;SDS011;8154;50.830;12.082;2023-03-20T20:16:18;1.50;;;1.40;;
16099;SDS011;8154;50.830;12.082;2023-03-20T20:18:45;1.50;;;1.40;;
16099;SDS011;8154;50.830;12.082;2023-03-20T20:21:13;1.50;;;1.40;;
16099;SDS011;8154;50.830;12.082;2023-03-20T20:23:40;1.40;;;1.30;;
16099;SDS011;8154;50.830;12.082;2023-03-20T21:25:02;1.50;;;1.40;;
16099;SDS011;8154;50.830;12.082;2023-03-20T21:27:30;1.40;;;1.30;;
16099;SDS011;8154;50.830;12.082;2023-03-20T21:29:56;1.40;;;1.30;;
16099;SDS011;8154;50.830;12.082;2023-03-20T21:32:25;1.40;;;1.30;;
16099;SDS011;8154;50.830;12.082;2023-03-20T21:34:56;1.38;;;1.30;;
16099;SDS011;8154;50.830;12.082;2023-03-20T21:37:22;1.20;;;1.20;;
16099;SDS011;8154;50.830;12.082;2023-03-20T21:39:50;1.15;;;1.15;;
16099;SDS011;8154;50.830;12.082;2023-03-20T21:42:21;1.30;;;1.20;;
16099;SDS011;8154;50.830;12.082;2023-03-20T21:44:47;1.40;;;1.30;;
16099;SDS011;8154;50.830;12.082;2023-03-20T21:47:15;1.25;;;1.23;;
16099;SDS011;8154;50.830;12.082;2023-03-20T21:49:42;1.20;;;1.20;;
16099;SDS011;8154;50.830;12.082;2023-03-20T21:52:09;1.40;;;1.30;;
16099;SDS011;8154;50.830;12.082;2023-03-20T21:54:37;1.10;;;1.10;;
16099;SDS011;8154;50.830;12.082;2023-03-20T21:57:04;1.40;;;1.30;;
16099;SDS011;8154;50.830;12.082;2023-03-20T21:59:30;1.20;;;1.20;;
16099;SDS011;8154;50.830;12.082;2023-03-20T22:01:56;1.35;;;1.25;;
16099;SDS011;8154;50.830;12.082;2023-03-20T22:04:24;1.35;;;1.25;;
16099;SDS011;8154;50.830;12.082;2023-03-20T22:06:50;1.40;;;1.30;;
16099;SDS011;8154;50.830;12.082;2023-03-20T22:09:16;1.38;;;1.27;;
16099;SDS011;8154;50.830;12.082;2023-03-20T22:11:42;1.40;;;1.30;;
16099;SDS011;8154;50.830;12.082;2023-03-20T22:14:28;1.35;;;1.30;;
16099;SDS011;8154;50.830;12.082;2023-03-20T22:16:54;1.20;;;1.20;;
16099;SDS011;8154;50.830;12.082;2023-03-20T22:19:21;1.20;;;1.20;;
16099;SDS011;8154;50.830;12.082;2023-03-20T22:21:47;1.20;;;1.20;;
16099;SDS011;8154;50.830;12.082;2023-03-20T22:24:14;1.25;;;1.20;;
16099;SDS011;8154;50.830;12.082;2023-03-20T23:25:16;1.05;;;1.05;;
16099;SDS011;8154;50.830;12.082;2023-03-20T23:27:42;1.20;;;1.20;;
16099;SDS011;8154;50.830;12.082;2023-03-20T23:30:09;1.13;;;1.13;;
16099;SDS011;8154;50.830;12.082;2023-03-20T23:32:37;1.02;;;1.02;;
16099;SDS011;8154;50.830;12.082;2023-03-20T23:35:05;1.15;;;1.15;;
16099;SDS011;8154;50.830;12.082;2023-03-20T23:37:33;1.02;;;1.02;;
16099;SDS011;8154;50.830;12.082;2023-03-20T23:40:00;1.10;;;1.10;;
16099;SDS011;8154;50.830;12.082;2023-03-20T23:42:29;1.00;;;1.00;;
16099;SDS011;8154;50.830;12.082;2023-03-20T23:44:55;1.08;;;1.08;;
16099;SDS011;8154;50.830;12.082;2023-03-20T23:47:21;1.00;;;1.00;;
16099;SDS011;8154;50.830;12.082;2023-03-20T23:49:47;1.00;;;1.00;;
16099;SDS011;8154;50.830;12.082;2023-03-20T23:52:14;1.20;;;1.20;;
16099;SDS011;8154;50.830;12.082;2023-03-20T23:54:41;1.20;;;1.20;;
16099;SDS011;8154;50.830;12.082;2023-03-20T23:57:07;1.30;;;1.20;;
16099;SDS011;8154;50.830;12.082;2023-03-20T23:59:34;1.33;;;1.23;;
